Convoy, Ohio
Current Conditions -  °F | °C
As of 10:54 AM on Wednesday 26 Nov 2014 (Local Time) from KFWA Reporting Station
Overcast Overcast  
Wind Chill: 21°   Ceiling: 1800
Heat Index: 28°   Visibility: 10mi
Dew Point: 21°   Wind: 7mph
Humidity: 75%   Direction: 90°E
Pressure: 30.16"   Gusts: NA
Location:  40.92°N, 84.7°W
Report Text: KFWA 261554Z 09006KT 10SM OVC018 M02/M06 A3016 RMK AO2 SLP225 T10221061
Loading
Personal Weather Stations






























Interactive Weather Map New forecast layout! Learn more

10-Day Weather Forecast

Advertisements
Track Severe Weather on mobile